createdAt,value
2023-02-02T00:01:21.156Z,8.30
2023-02-02T00:04:05.491Z,11.38
2023-02-02T00:06:48.705Z,9.52
2023-02-02T00:09:32.257Z,8.73
2023-02-02T00:12:14.927Z,10.02
2023-02-02T00:14:57.776Z,10.20
2023-02-02T00:17:40.430Z,9.18
2023-02-02T00:20:24.534Z,9.43
2023-02-02T00:23:07.250Z,11.35
2023-02-02T00:25:50.650Z,10.23
2023-02-02T00:28:33.389Z,9.68
2023-02-02T00:31:16.108Z,11.98
2023-02-02T00:33:59.881Z,15.30
2023-02-02T00:36:44.442Z,10.38
2023-02-02T00:39:27.118Z,10.77
2023-02-02T00:42:10.835Z,7.50
2023-02-02T00:45:10.758Z,13.35
2023-02-02T00:47:53.400Z,10.95
2023-02-02T00:50:36.006Z,8.57
2023-02-02T00:53:20.036Z,9.25
2023-02-02T00:56:03.201Z,8.23
2023-02-02T00:58:45.819Z,8.25
2023-02-02T01:01:28.684Z,7.22
2023-02-02T01:04:11.416Z,11.95
2023-02-02T01:06:55.863Z,10.18
2023-02-02T01:09:39.875Z,8.30
2023-02-02T01:12:22.556Z,13.10
2023-02-02T01:15:05.810Z,8.90
2023-02-02T01:17:48.505Z,6.55
2023-02-02T01:20:31.802Z,5.25
2023-02-02T01:23:14.493Z,6.47
2023-02-02T01:26:00.117Z,3.17
2023-02-02T01:28:42.915Z,3.70
2023-02-02T01:31:25.616Z,8.18
2023-02-02T01:34:08.356Z,6.88
2023-02-02T01:36:51.142Z,2.58
2023-02-02T01:39:34.386Z,3.42
2023-02-02T01:42:21.253Z,2.00
2023-02-02T01:45:06.412Z,3.13
2023-02-02T01:47:51.602Z,2.05
2023-02-02T01:50:35.933Z,2.35
2023-02-02T01:53:19.752Z,2.38
2023-02-02T01:56:03.041Z,4.10
2023-02-02T01:58:47.265Z,4.28
2023-02-02T02:01:30.104Z,4.18
2023-02-02T02:04:12.953Z,5.10
2023-02-02T02:06:55.809Z,3.08
2023-02-02T02:09:39.009Z,5.85
2023-02-02T02:12:21.868Z,4.57
2023-02-02T02:15:26.214Z,4.68
2023-02-02T02:18:14.278Z,9.15
2023-02-02T02:21:31.092Z,8.48
2023-02-02T02:24:48.813Z,5.13
2023-02-02T02:27:50.401Z,5.22
2023-02-02T02:30:51.581Z,4.82
2023-02-02T02:33:38.735Z,3.95
2023-02-02T02:36:26.397Z,5.53
2023-02-02T02:39:14.329Z,3.65
2023-02-02T02:41:59.545Z,7.93
2023-02-02T02:44:43.020Z,5.70
2023-02-02T02:47:26.344Z,5.80
2023-02-02T02:50:11.121Z,5.15
2023-02-02T02:52:58.633Z,6.00
2023-02-02T02:55:47.577Z,6.43
2023-02-02T02:58:35.419Z,4.57
2023-02-02T03:01:22.107Z,7.32
2023-02-02T03:04:08.218Z,6.47
2023-02-02T03:06:54.032Z,8.93
2023-02-02T03:09:39.180Z,6.18
2023-02-02T03:16:41.080Z,5.72
2023-02-02T03:19:23.766Z,2.72
2023-02-02T03:22:07.770Z,3.22
2023-02-02T03:24:50.346Z,2.10
2023-02-02T03:27:33.485Z,2.65
2023-02-02T03:30:16.404Z,4.03
2023-02-02T03:32:59.325Z,5.50
2023-02-02T03:35:41.929Z,4.88
2023-02-02T03:38:26.043Z,3.67
2023-02-02T03:41:08.658Z,4.70
2023-02-02T03:43:51.304Z,4.75
2023-02-02T03:46:34.035Z,8.23
2023-02-02T03:49:16.704Z,4.55
2023-02-02T03:51:59.321Z,4.43
2023-02-02T03:54:43.370Z,3.80
2023-02-02T03:57:25.925Z,3.55
2023-02-02T04:00:09.200Z,5.47
2023-02-02T04:02:54.774Z,6.05
2023-02-02T04:05:37.483Z,6.03
2023-02-02T04:08:20.038Z,5.07
2023-02-02T04:11:04.198Z,7.68
2023-02-02T04:13:46.852Z,4.80
2023-02-02T04:16:30.979Z,4.82
2023-02-02T04:19:14.067Z,3.30
2023-02-02T04:21:56.747Z,4.20
2023-02-02T04:24:39.380Z,5.32
2023-02-02T04:27:23.408Z,4.30
2023-02-02T04:30:06.856Z,4.97
2023-02-02T04:32:49.519Z,3.15
2023-02-02T04:35:32.266Z,5.22
2023-02-02T04:38:14.895Z,6.22
2023-02-02T04:40:57.480Z,4.93
2023-02-02T04:43:41.452Z,7.22
2023-02-02T04:46:24.060Z,7.28
2023-02-02T04:49:07.132Z,5.20
2023-02-02T04:51:50.479Z,6.47
2023-02-02T04:54:33.671Z,8.25
2023-02-02T04:57:17.682Z,4.55
2023-02-02T05:00:01.716Z,6.05
2023-02-02T05:02:44.318Z,3.90
2023-02-02T05:05:27.194Z,5.07
2023-02-02T05:08:12.012Z,5.35
2023-02-02T05:10:54.678Z,4.30
2023-02-02T05:13:37.320Z,6.40
2023-02-02T05:16:22.003Z,9.75
2023-02-02T05:19:04.716Z,7.70
2023-02-02T05:21:50.971Z,3.78
2023-02-02T05:24:34.012Z,3.15
2023-02-02T05:27:16.728Z,4.63
2023-02-02T05:29:59.378Z,5.28
2023-02-02T05:32:43.368Z,5.47
2023-02-02T05:35:26.296Z,3.85
2023-02-02T05:38:09.012Z,4.75
2023-02-02T05:40:51.620Z,5.82
2023-02-02T05:43:34.558Z,6.00
2023-02-02T05:46:17.206Z,7.50
2023-02-02T05:49:04.962Z,6.00
2023-02-02T05:51:48.323Z,5.38
2023-02-02T05:54:30.920Z,5.15
2023-02-02T05:57:13.591Z,8.35
2023-02-02T05:59:56.180Z,6.05
2023-02-02T06:02:38.809Z,9.02
2023-02-02T06:05:23.157Z,7.78
2023-02-02T06:08:06.118Z,6.03
2023-02-02T06:10:48.717Z,6.63
2023-02-02T06:13:32.236Z,5.13
2023-02-02T06:16:15.155Z,5.47
2023-02-02T06:18:57.980Z,7.05
2023-02-02T06:21:41.901Z,8.65
2023-02-02T06:24:24.582Z,8.02
2023-02-02T06:27:07.182Z,7.45
2023-02-02T06:29:49.782Z,7.47
2023-02-02T06:32:32.342Z,9.93
2023-02-02T06:35:15.004Z,8.52
2023-02-02T06:37:58.993Z,6.20
2023-02-02T06:40:41.567Z,5.53
2023-02-02T06:43:24.167Z,6.55
2023-02-02T06:46:06.852Z,4.60
2023-02-02T06:48:49.515Z,7.63
2023-02-02T06:51:32.107Z,10.25
2023-02-02T06:54:16.164Z,6.45
2023-02-02T06:56:58.790Z,8.82
2023-02-02T06:59:41.644Z,4.85
2023-02-02T07:02:24.276Z,6.05
2023-02-02T07:05:07.025Z,4.75
2023-02-02T07:07:49.616Z,4.03
2023-02-02T07:11:14.738Z,6.07
2023-02-02T07:13:36.218Z,3.80
2023-02-02T07:16:19.496Z,4.82
2023-02-02T07:19:02.143Z,3.88
2023-02-02T07:21:44.859Z,4.43
2023-02-02T07:24:28.767Z,4.40
2023-02-02T07:27:12.746Z,3.78
2023-02-02T07:29:55.363Z,3.35
2023-02-02T07:32:37.969Z,3.28
2023-02-02T07:35:20.663Z,3.70
2023-02-02T07:38:03.229Z,3.50
2023-02-02T07:40:46.077Z,4.00
2023-02-02T07:43:30.033Z,3.92
2023-02-02T07:46:14.359Z,7.43
2023-02-02T07:48:58.037Z,6.25
2023-02-02T07:51:43.366Z,5.70
2023-02-02T07:54:29.209Z,5.55
2023-02-02T07:57:13.235Z,2.92
2023-02-02T07:59:57.265Z,6.15
2023-02-02T08:02:39.981Z,5.95
2023-02-02T08:05:23.024Z,4.07
2023-02-02T08:08:06.160Z,6.68
2023-02-02T08:10:49.216Z,4.30
2023-02-02T08:13:31.827Z,5.30
2023-02-02T08:16:17.054Z,4.32
2023-02-02T08:18:59.825Z,6.13
2023-02-02T08:21:42.421Z,3.13
2023-02-02T08:24:25.114Z,4.32
2023-02-02T08:27:08.030Z,5.32
2023-02-02T08:29:50.634Z,4.45
2023-02-02T08:32:34.591Z,3.75
2023-02-02T08:35:17.235Z,4.38
2023-02-02T08:38:02.852Z,5.85
2023-02-02T08:40:45.493Z,6.65
2023-02-02T08:43:29.722Z,4.82
2023-02-02T08:46:14.499Z,3.60
2023-02-02T08:48:58.717Z,7.90
2023-02-02T08:51:41.693Z,5.60
2023-02-02T08:54:24.308Z,6.22
2023-02-02T08:57:06.930Z,5.30
2023-02-02T08:59:49.490Z,7.63
2023-02-02T09:02:32.149Z,3.33
2023-02-02T09:05:16.236Z,8.00
2023-02-02T09:07:59.195Z,8.05
2023-02-02T09:10:41.825Z,8.32
2023-02-02T09:13:24.425Z,6.10
2023-02-02T09:16:08.532Z,6.63
2023-02-02T09:18:51.209Z,3.53
2023-02-02T09:21:36.974Z,4.50
2023-02-02T09:24:19.799Z,8.30
2023-02-02T09:27:02.487Z,10.60
2023-02-02T09:29:45.195Z,8.52
2023-02-02T09:32:27.809Z,5.10
2023-02-02T09:35:10.480Z,6.72
2023-02-02T09:37:54.565Z,3.92
2023-02-02T09:40:37.228Z,6.60
2023-02-02T09:43:27.954Z,9.27
2023-02-02T09:46:13.888Z,7.50
2023-02-02T09:49:01.140Z,3.92
2023-02-02T09:51:46.029Z,4.75
2023-02-02T09:54:34.263Z,7.55
2023-02-02T09:57:19.020Z,7.57
2023-02-02T10:00:01.708Z,11.40
2023-02-02T10:02:56.296Z,3.80
2023-02-02T10:05:45.222Z,6.70
2023-02-02T10:08:34.970Z,5.43
2023-02-02T10:11:33.569Z,7.07
2023-02-02T10:14:19.363Z,6.32
2023-02-02T10:17:17.213Z,7.75
2023-02-02T10:20:03.895Z,7.65
2023-02-02T10:22:47.723Z,4.97
2023-02-02T10:25:30.706Z,3.50
2023-02-02T10:28:18.248Z,5.30
2023-02-02T10:31:02.339Z,3.65
2023-02-02T10:33:50.196Z,5.22
2023-02-02T10:36:38.163Z,6.18
2023-02-02T10:39:24.665Z,7.35
2023-02-02T10:42:14.018Z,3.97
2023-02-02T10:44:58.943Z,5.35
2023-02-02T10:47:41.687Z,6.47
2023-02-02T10:50:25.509Z,6.25
2023-02-02T10:53:13.642Z,3.67
2023-02-02T10:55:57.540Z,4.72
2023-02-02T10:58:41.452Z,5.72
2023-02-02T11:01:25.463Z,3.88
2023-02-02T11:04:33.009Z,3.60
2023-02-02T11:07:20.417Z,3.63
2023-02-02T11:10:03.052Z,5.22
2023-02-02T11:12:54.899Z,7.72
2023-02-02T11:15:38.542Z,3.60
2023-02-02T11:18:30.479Z,3.15
2023-02-02T11:21:18.994Z,3.15
2023-02-02T11:24:02.347Z,5.32
2023-02-02T11:26:48.138Z,3.33
2023-02-02T11:29:32.148Z,3.28
2023-02-02T11:32:19.021Z,7.43
2023-02-02T11:35:14.814Z,5.43
2023-02-02T11:38:09.160Z,4.93
2023-02-02T11:40:56.050Z,4.22
2023-02-02T11:43:41.564Z,7.15
2023-02-02T11:46:28.545Z,5.95
2023-02-02T11:49:16.555Z,4.72
2023-02-02T11:52:01.918Z,4.28
2023-02-02T11:54:47.547Z,2.15
2023-02-02T11:57:30.592Z,2.38
2023-02-02T12:00:17.798Z,3.50
2023-02-02T12:03:00.508Z,3.17
2023-02-02T12:05:46.651Z,6.93
2023-02-02T12:08:31.533Z,3.08
2023-02-02T12:11:21.991Z,4.22
2023-02-02T12:14:11.967Z,2.38
2023-02-02T12:17:00.619Z,5.32
2023-02-02T12:19:58.116Z,4.00
2023-02-02T12:22:52.238Z,6.28
2023-02-02T12:25:46.941Z,3.83
2023-02-02T12:28:37.078Z,3.50
2023-02-02T12:31:26.915Z,2.95
2023-02-02T12:34:13.897Z,6.30
2023-02-02T12:37:03.203Z,4.97
2023-02-02T12:39:52.280Z,4.10
2023-02-02T12:42:45.128Z,3.28
2023-02-02T12:45:38.437Z,1.60
2023-02-02T12:48:28.192Z,1.80
2023-02-02T12:51:21.570Z,3.90
2023-02-02T12:54:33.051Z,5.53
2023-02-02T12:57:22.338Z,7.05
2023-02-02T13:00:13.423Z,5.97
2023-02-02T13:03:02.927Z,3.22
2023-02-02T13:05:56.546Z,3.28
2023-02-02T13:08:43.814Z,5.88
2023-02-02T13:11:33.601Z,2.63
2023-02-02T13:14:18.270Z,2.25
2023-02-02T13:17:03.460Z,17.23
2023-02-02T13:19:47.293Z,7.30
2023-02-02T13:22:31.045Z,4.90
2023-02-02T13:25:23.090Z,1.35
2023-02-02T13:28:07.061Z,2.75
2023-02-02T13:30:50.973Z,5.68
2023-02-02T13:33:36.091Z,5.53
2023-02-02T13:36:25.486Z,4.47
2023-02-02T13:39:14.010Z,4.95
2023-02-02T13:41:57.124Z,3.63
2023-02-02T13:44:42.558Z,4.28
2023-02-02T13:47:30.088Z,4.05
2023-02-02T13:50:16.003Z,1.92
2023-02-02T13:53:07.753Z,2.13
2023-02-02T13:56:08.059Z,2.80
2023-02-02T13:59:04.677Z,2.58
2023-02-02T14:01:50.396Z,4.20
2023-02-02T14:04:33.052Z,3.20
2023-02-02T14:07:17.056Z,7.25
2023-02-02T14:09:59.700Z,3.00
2023-02-02T14:12:42.388Z,6.00
2023-02-02T14:15:38.879Z,3.67
2023-02-02T14:18:49.278Z,1.58
2023-02-02T14:21:50.569Z,2.95
2023-02-02T14:24:45.578Z,3.38
2023-02-02T14:27:58.238Z,2.03
2023-02-02T14:30:41.256Z,3.90
2023-02-02T14:33:28.519Z,2.40
2023-02-02T14:36:13.968Z,1.88
2023-02-02T14:39:11.803Z,5.03
2023-02-02T14:42:23.271Z,2.60
2023-02-02T14:45:08.466Z,3.97
2023-02-02T14:47:52.425Z,2.78
2023-02-02T14:50:55.939Z,4.22
2023-02-02T14:53:39.564Z,2.60
2023-02-02T14:56:23.087Z,5.43
2023-02-02T14:59:08.395Z,2.42
2023-02-02T15:01:55.223Z,2.55
2023-02-02T15:04:38.054Z,2.42
2023-02-02T15:07:53.090Z,4.03
2023-02-02T15:10:54.623Z,5.00
2023-02-02T15:13:37.821Z,1.27
2023-02-02T15:16:25.013Z,2.78
2023-02-02T15:19:12.306Z,3.80
2023-02-02T15:21:56.797Z,6.90
2023-02-02T15:24:40.123Z,3.13
2023-02-02T15:27:25.068Z,5.03
2023-02-02T15:30:09.643Z,1.88
2023-02-02T15:32:53.704Z,1.98
2023-02-02T15:35:38.221Z,7.25
2023-02-02T15:38:22.462Z,3.90
2023-02-02T15:41:06.144Z,1.90
2023-02-02T15:43:48.838Z,2.78
2023-02-02T15:46:33.336Z,4.95
2023-02-02T15:49:33.704Z,5.22
2023-02-02T15:52:18.251Z,2.35
2023-02-02T15:55:01.203Z,1.75
2023-02-02T15:57:45.863Z,1.73
2023-02-02T16:00:29.960Z,4.53
2023-02-02T16:03:14.073Z,2.97
2023-02-02T16:05:59.323Z,3.47
2023-02-02T16:08:42.327Z,3.97
2023-02-02T16:11:24.953Z,2.90
2023-02-02T16:14:10.358Z,2.97
2023-02-02T16:16:53.016Z,3.60
2023-02-02T16:19:35.901Z,4.35
2023-02-02T16:22:23.866Z,4.60
2023-02-02T16:25:08.420Z,2.20
2023-02-02T16:27:52.967Z,5.13
2023-02-02T16:30:38.296Z,5.97
2023-02-02T16:33:28.308Z,4.82
2023-02-02T16:36:24.246Z,1.98
2023-02-02T16:39:15.902Z,3.53
2023-02-02T16:42:09.049Z,6.45
2023-02-02T16:44:51.783Z,4.18
2023-02-02T16:47:35.832Z,2.50
2023-02-02T16:50:27.454Z,2.95
2023-02-02T16:53:21.598Z,1.92
2023-02-02T16:56:06.290Z,3.42
2023-02-02T16:58:48.978Z,4.68
2023-02-02T17:01:37.346Z,6.47
2023-02-02T17:04:22.555Z,5.50
2023-02-02T17:07:11.653Z,4.18
2023-02-02T17:10:12.816Z,2.28
2023-02-02T17:12:56.749Z,3.53
2023-02-02T17:15:39.391Z,4.28
2023-02-02T17:18:21.989Z,4.60
2023-02-02T17:21:07.568Z,6.75
2023-02-02T17:23:51.642Z,4.88
2023-02-02T17:26:34.302Z,3.33
2023-02-02T17:29:19.740Z,3.10
2023-02-02T17:32:02.342Z,4.10
2023-02-02T17:34:45.979Z,5.05
2023-02-02T17:37:28.618Z,4.13
2023-02-02T17:40:13.614Z,7.63
2023-02-02T17:42:56.407Z,4.63
2023-02-02T17:45:40.706Z,6.85
2023-02-02T17:48:23.419Z,7.68
2023-02-02T17:51:07.226Z,7.00
2023-02-02T17:53:49.978Z,3.50
2023-02-02T17:56:32.623Z,5.90
2023-02-02T17:59:15.257Z,5.97
2023-02-02T18:01:59.367Z,7.82
2023-02-02T18:04:43.665Z,5.22
2023-02-02T18:07:27.954Z,3.60
2023-02-02T18:10:11.675Z,9.55
2023-02-02T18:12:54.452Z,4.43
2023-02-02T18:15:37.128Z,4.97
2023-02-02T18:18:21.141Z,7.57
2023-02-02T18:21:03.788Z,5.97
2023-02-02T18:23:47.854Z,6.13
2023-02-02T18:26:31.519Z,5.72
2023-02-02T18:29:14.486Z,7.00
2023-02-02T18:31:58.657Z,6.10
2023-02-02T18:34:42.695Z,6.00
2023-02-02T18:37:25.845Z,9.85
2023-02-02T18:40:08.925Z,7.03
2023-02-02T18:42:51.565Z,5.13
2023-02-02T18:45:34.263Z,9.55
2023-02-02T18:48:19.556Z,6.90
2023-02-02T18:51:06.762Z,5.57
2023-02-02T18:53:50.039Z,6.57
2023-02-02T18:56:32.682Z,9.90
2023-02-02T18:59:15.404Z,8.48
2023-02-02T19:01:58.108Z,8.95
2023-02-02T19:05:00.865Z,6.40
2023-02-02T19:07:56.221Z,9.27
2023-02-02T19:10:39.010Z,7.07
2023-02-02T19:13:22.153Z,9.63
2023-02-02T19:16:06.815Z,8.07
2023-02-02T19:18:49.516Z,7.13
2023-02-02T19:21:32.661Z,6.20
2023-02-02T19:24:16.771Z,9.43
2023-02-02T19:26:59.435Z,8.18
2023-02-02T19:29:42.238Z,9.38
2023-02-02T19:32:26.992Z,9.63
2023-02-02T19:35:16.627Z,8.40
2023-02-02T19:38:01.322Z,8.35
2023-02-02T19:40:45.352Z,8.65
2023-02-02T19:43:28.842Z,8.05
2023-02-02T19:46:16.305Z,10.73
2023-02-02T19:49:02.813Z,9.77
2023-02-02T19:51:46.176Z,10.70
2023-02-02T19:54:30.700Z,10.45
2023-02-02T19:57:18.569Z,7.45
2023-02-02T20:00:03.364Z,9.40
2023-02-02T20:02:55.171Z,12.32
2023-02-02T20:05:39.840Z,8.82
2023-02-02T20:08:25.266Z,11.00
2023-02-02T20:11:20.194Z,11.10
2023-02-02T20:14:10.970Z,12.88
2023-02-02T20:16:54.850Z,9.60
2023-02-02T20:19:41.463Z,8.90
2023-02-02T20:22:26.831Z,10.30
2023-02-02T20:25:09.534Z,9.93
2023-02-02T20:27:52.246Z,9.60
2023-02-02T20:30:36.529Z,11.70
2023-02-02T20:33:22.009Z,10.82
2023-02-02T20:36:16.745Z,9.10
2023-02-02T20:39:01.272Z,9.93
2023-02-02T20:41:44.415Z,9.63
2023-02-02T20:44:27.643Z,10.77
2023-02-02T20:47:11.699Z,6.55
2023-02-02T20:49:54.401Z,7.57
2023-02-02T20:52:37.117Z,8.65
2023-02-02T20:55:20.344Z,9.23
2023-02-02T20:58:03.493Z,8.50
2023-02-02T21:00:46.221Z,8.95
2023-02-02T21:03:30.321Z,8.48
2023-02-02T21:06:13.066Z,7.35
2023-02-02T21:08:55.760Z,7.50
2023-02-02T21:11:38.795Z,8.25
2023-02-02T21:14:21.494Z,5.15
2023-02-02T21:17:14.461Z,9.93
2023-02-02T21:19:59.443Z,8.25
2023-02-02T21:22:42.490Z,8.45
2023-02-02T21:25:25.293Z,10.98
2023-02-02T21:28:14.919Z,6.03
2023-02-02T21:30:57.719Z,7.15
2023-02-02T21:33:41.898Z,4.30
2023-02-02T21:36:30.360Z,6.18
2023-02-02T21:39:16.771Z,6.40
2023-02-02T21:42:06.951Z,7.35
2023-02-02T21:44:52.452Z,5.85
2023-02-02T21:47:36.170Z,5.22
2023-02-02T21:50:20.205Z,4.65
2023-02-02T21:53:17.780Z,4.88
2023-02-02T21:56:00.799Z,6.28
2023-02-02T21:58:45.251Z,8.68
2023-02-02T22:01:34.010Z,5.93
2023-02-02T22:04:21.835Z,5.80
2023-02-02T22:07:11.423Z,6.82
2023-02-02T22:09:56.516Z,5.25
2023-02-02T22:12:39.303Z,6.57
2023-02-02T22:15:23.124Z,7.18
2023-02-02T22:18:12.724Z,5.40
2023-02-02T22:20:56.486Z,6.63
2023-02-02T22:23:39.884Z,3.58
2023-02-02T22:26:32.237Z,5.35
2023-02-02T22:29:16.341Z,3.65
2023-02-02T22:31:59.069Z,5.30
2023-02-02T22:34:41.806Z,7.43
2023-02-02T22:37:24.492Z,3.42
2023-02-02T22:40:07.823Z,5.97
2023-02-02T22:42:52.165Z,4.50
2023-02-02T22:45:35.088Z,5.13
2023-02-02T22:48:18.014Z,4.53
2023-02-02T22:51:00.728Z,3.50
2023-02-02T22:53:43.463Z,3.05
2023-02-02T22:56:26.187Z,4.75
2023-02-02T22:59:10.184Z,2.35
2023-02-02T23:01:52.799Z,6.78
2023-02-02T23:04:35.548Z,3.50
2023-02-02T23:07:18.205Z,2.50
2023-02-02T23:10:00.851Z,4.47
2023-02-02T23:12:43.549Z,1.98
2023-02-02T23:15:27.618Z,3.58
2023-02-02T23:18:10.213Z,1.95
2023-02-02T23:20:52.835Z,3.65
2023-02-02T23:23:35.465Z,3.22
2023-02-02T23:26:18.111Z,3.60
2023-02-02T23:29:00.987Z,2.90
2023-02-02T23:31:45.145Z,4.50
2023-02-02T23:34:27.840Z,2.45
2023-02-02T23:37:10.464Z,2.55
2023-02-02T23:39:53.086Z,2.88
2023-02-02T23:42:35.743Z,2.05
2023-02-02T23:45:18.578Z,1.30
2023-02-02T23:48:02.736Z,1.95
2023-02-02T23:50:46.786Z,3.85
2023-02-02T23:53:29.619Z,2.05
2023-02-02T23:56:12.262Z,2.08
2023-02-02T23:58:54.915Z,2.63
